Wila, Pennsylvania
Current Conditions -  °F | °C
As of 5:56 PM on Monday 20 Oct 2014 (Local Time) from KCXY Reporting Station
Clear Clear  
Wind Chill: 60°   Ceiling: Unl
Heat Index: 60°   Visibility: 10mi
Dew Point: 41°   Wind: 7mph
Humidity: 49%   Direction: 220°SW
Pressure: 29.94"   Gusts: NA
Location:  40.4932°N, 77.217°W
Report Text: KCXY 202156Z 22006KT 10SM CLR 16/05 A2994 RMK AO2 SLP142 T01560050
Loading
Personal Weather Stations






























Interactive Weather Map
Tropical Storm Tracking
New forecast layout! Learn more

10-Day Weather Forecast

Advertisements
Track Severe Weather on mobile